Time;durP1;ratioP1;P1;durP2;ratioP2;P2;SDS_P1;SDS_P2;PMS_P1;PMS_P2;Temp;Humidity;BMP_temperature;BMP_pressure;BME280_temperature;BME280_humidity;BME280_pressure;Samples;Min_cycle;Max_cycle;Signal;HPM_P1;HPM_P2
2020/12/13 00:01:02;;;;;;;32.13;13.75;;;;;;;1.17;86.29;99747.80;1753054;81;25682;-65
2020/12/13 00:03:29;;;;;;;28.57;14.10;;;;;;;1.17;86.25;99747.00;1753057;81;25678;-60
2020/12/13 00:05:55;;;;;;;31.20;15.18;;;;;;;1.14;86.17;99748.84;1753201;81;26216;-62
2020/12/13 00:08:23;;;;;;;28.80;13.72;;;;;;;1.14;86.16;99758.17;1752775;81;25643;-62
2020/12/13 00:10:49;;;;;;;29.07;14.15;;;;;;;1.11;86.24;99758.17;1755991;80;25654;-49
2020/12/13 00:13:16;;;;;;;33.73;14.68;;;;;;;1.11;86.25;99760.84;1704804;84;25956;-61
2020/12/13 00:15:43;;;;;;;29.72;13.88;;;;;;;1.11;86.26;99764.83;1759866;81;25607;-60
2020/12/13 00:18:09;;;;;;;26.95;13.32;;;;;;;1.10;86.22;99765.88;1759477;81;25832;-54
2020/12/13 00:20:36;;;;;;;31.52;14.95;;;;;;;1.12;86.31;99763.75;1759750;81;25718;-59
2020/12/13 00:23:03;;;;;;;29.57;14.75;;;;;;;1.13;86.25;99765.37;1759872;81;25583;-56
2020/12/13 00:25:30;;;;;;;28.23;13.40;;;;;;;1.14;86.27;99765.63;1759793;81;25647;-59
2020/12/13 00:27:56;;;;;;;25.70;13.25;;;;;;;1.15;86.25;99773.90;1759977;81;25667;-59
2020/12/13 00:30:23;;;;;;;28.70;14.23;;;;;;;1.13;86.20;99768.03;1759697;81;26144;-56
2020/12/13 00:32:50;;;;;;;31.20;15.13;;;;;;;1.11;86.21;99770.95;1759749;81;26288;-60
2020/12/13 00:35:16;;;;;;;28.25;14.75;;;;;;;1.17;86.38;99773.64;1759887;81;25677;-57
2020/12/13 00:37:43;;;;;;;28.23;13.72;;;;;;;1.20;86.41;99781.13;1759860;81;25717;-58
2020/12/13 00:40:10;;;;;;;28.42;14.35;;;;;;;1.21;86.27;99778.71;1760002;81;25663;-60
2020/12/13 00:42:37;;;;;;;32.98;15.30;;;;;;;1.19;86.18;99779.50;1759873;81;27165;-60
2020/12/13 00:45:04;;;;;;;32.00;14.05;;;;;;;1.18;86.15;99773.39;1759720;80;25681;-52
2020/12/13 00:47:31;;;;;;;30.50;14.93;;;;;;;1.17;86.08;99777.64;1759793;81;25722;-60
2020/12/13 00:49:58;;;;;;;32.58;15.03;;;;;;;1.19;86.18;99768.85;1759622;81;25713;-59
2020/12/13 00:52:24;;;;;;;26.95;13.70;;;;;;;1.18;86.20;99777.38;1759800;81;25738;-60
2020/12/13 00:54:51;;;;;;;27.93;14.23;;;;;;;1.19;86.19;99782.17;1759890;80;26387;-59
2020/12/13 00:57:18;;;;;;;33.10;14.78;;;;;;;1.18;86.18;99778.72;1759752;81;25575;-62
2020/12/13 00:59:45;;;;;;;31.33;14.28;;;;;;;1.21;86.31;99782.20;1759772;81;25702;-59
2020/12/13 01:02:11;;;;;;;29.10;14.65;;;;;;;1.22;86.22;99788.31;1759978;81;25734;-61
2020/12/13 01:04:38;;;;;;;29.95;15.15;;;;;;;1.22;86.23;99786.45;1760043;81;25632;-48
2020/12/13 01:07:05;;;;;;;33.63;14.73;;;;;;;1.22;86.27;99789.11;1759932;81;25701;-60
2020/12/13 01:09:33;;;;;;;34.50;15.60;;;;;;;1.20;86.18;99782.45;1759740;80;25651;-57
2020/12/13 01:12:00;;;;;;;34.27;15.53;;;;;;;1.20;86.21;99782.45;1759860;81;25650;-49
2020/12/13 01:14:27;;;;;;;32.90;15.93;;;;;;;1.21;86.30;99786.20;1759764;81;25681;-46
2020/12/13 01:16:54;;;;;;;33.08;15.50;;;;;;;1.22;86.34;99786.98;1759895;81;25665;-61
2020/12/13 01:19:22;;;;;;;30.95;15.15;;;;;;;1.21;86.29;99783.53;1759741;81;26148;-53
2020/12/13 01:21:49;;;;;;;32.20;15.40;;;;;;;1.22;86.34;99790.98;1759823;81;25706;-62
2020/12/13 01:26:53;;;;;;;32.70;14.57;;;;;;;1.34;86.80;99796.90;1845652;75;35767;-62
2020/12/13 01:29:19;;;;;;;31.87;14.40;;;;;;;1.26;86.46;99793.39;1817629;78;25672;-53
2020/12/13 01:31:46;;;;;;;32.48;14.63;;;;;;;1.24;86.38;99795.52;1817813;78;26131;-59
2020/12/13 01:34:13;;;;;;;32.30;14.60;;;;;;;1.22;86.32;99797.64;1817867;78;25937;-56
2020/12/13 01:36:40;;;;;;;32.93;15.15;;;;;;;1.18;86.29;99802.69;1818851;78;25741;-52
2020/12/13 01:39:07;;;;;;;30.82;14.07;;;;;;;1.16;86.36;99794.16;1818801;78;25562;-51
2020/12/13 01:41:34;;;;;;;29.15;14.23;;;;;;;1.17;86.46;99796.28;1818836;78;25724;-60
2020/12/13 01:44:05;;;;;;;28.32;15.18;;;;;;;1.17;86.46;99801.61;1786856;78;27951;-51
2020/12/13 01:46:34;;;;;;;32.03;15.35;;;;;;;1.16;86.62;99799.48;1751870;81;25684;-58
2020/12/13 01:49:06;;;;;;;33.85;14.78;;;;;;;1.16;86.52;99803.48;1751850;81;25726;-54
2020/12/13 01:54:21;;;;;;;30.10;14.05;;;;;;;1.15;86.54;99808.53;1751951;81;25671;-54
2020/12/13 01:56:52;;;;;;;34.95;14.55;;;;;;;1.13;86.53;99805.87;1752150;81;25694;-57
2020/12/13 01:59:21;;;;;;;30.43;15.28;;;;;;;1.13;86.57;99804.53;1753264;81;25627;-48
2020/12/13 02:01:52;;;;;;;31.45;14.90;;;;;;;1.15;86.67;99808.53;1761180;81;25674;-58
2020/12/13 02:04:22;;;;;;;29.52;14.00;;;;;;;1.15;86.64;99804.53;1751600;81;25718;-48
2020/12/13 02:09:28;;;;;;;34.73;16.23;;;;;;;1.24;86.66;99811.50;1887469;76;33160;-46
2020/12/13 02:11:55;;;;;;;29.90;13.90;;;;;;;1.15;86.67;99809.07;1858296;77;25559;-53
2020/12/13 02:14:21;;;;;;;35.10;14.80;;;;;;;1.15;86.81;99809.86;1858274;77;26208;-50
2020/12/13 02:16:48;;;;;;;32.13;15.48;;;;;;;1.15;86.78;99807.20;1858321;77;26260;-59
2020/12/13 02:19:17;;;;;;;31.27;13.90;;;;;;;1.16;86.80;99802.16;1858242;77;25612;-59
2020/12/13 02:21:45;;;;;;;37.65;16.17;;;;;;;1.17;86.80;99809.07;1858387;76;25534;-56
2020/12/13 02:24:15;;;;;;;29.80;15.63;;;;;;;1.20;86.80;99802.44;1858371;77;25580;-58
2020/12/13 02:26:44;;;;;;;33.35;14.93;;;;;;;1.22;86.85;99805.64;1858325;77;25758;-57
2020/12/13 02:29:11;;;;;;;31.95;16.20;;;;;;;1.23;86.86;99809.38;1858177;77;25656;-55
2020/12/13 02:31:38;;;;;;;32.23;15.13;;;;;;;1.27;86.92;99797.13;1858107;77;25557;-44
2020/12/13 02:34:05;;;;;;;34.08;16.82;;;;;;;1.33;86.94;99801.97;1852897;77;25675;-58
2020/12/13 02:36:33;;;;;;;29.80;14.93;;;;;;;1.34;86.85;99802.23;1858312;77;25704;-47
2020/12/13 02:39:03;;;;;;;33.20;15.35;;;;;;;1.36;86.80;99801.97;1858243;76;26415;-57
2020/12/13 02:41:29;;;;;;;33.35;16.37;;;;;;;1.34;86.54;99812.89;1858388;76;26243;-59
2020/12/13 02:43:56;;;;;;;35.80;16.30;;;;;;;1.31;86.48;99810.73;1858249;77;26281;-59
2020/12/13 02:46:23;;;;;;;32.48;14.75;;;;;;;1.31;86.60;99814.73;1858110;77;25665;-58
2020/12/13 02:48:49;;;;;;;31.37;14.75;;;;;;;1.28;86.53;99818.73;1858233;76;25609;-58
2020/12/13 02:51:16;;;;;;;33.40;16.15;;;;;;;1.27;86.66;99821.11;1858162;76;26209;-55
2020/12/13 02:53:43;;;;;;;32.58;15.90;;;;;;;1.26;86.63;99819.53;1858236;77;25750;-53
2020/12/13 02:56:09;;;;;;;34.30;16.15;;;;;;;1.22;86.60;99819.75;1858229;77;25637;-60
2020/12/13 02:58:36;;;;;;;35.68;15.32;;;;;;;1.22;86.72;99817.63;1858119;77;25652;-59
2020/12/13 03:01:02;;;;;;;31.37;15.70;;;;;;;1.22;86.81;99823.75;1858102;77;25676;-57
2020/12/13 03:03:29;;;;;;;31.97;15.90;;;;;;;1.22;86.85;99829.08;1858237;77;26191;-53
2020/12/13 03:05:56;;;;;;;30.92;15.30;;;;;;;1.21;86.80;99825.34;1858100;77;25647;-49
2020/12/13 03:08:22;;;;;;;34.05;17.02;;;;;;;1.22;86.99;99824.29;1858082;77;25759;-55
2020/12/13 03:10:49;;;;;;;31.40;15.28;;;;;;;1.23;86.99;99831.23;1858262;77;25616;-51
2020/12/13 03:13:15;;;;;;;31.07;14.43;;;;;;;1.21;86.95;99826.67;1858076;77;25540;-63
2020/12/13 03:15:43;;;;;;;31.93;15.23;;;;;;;1.18;86.93;99832.53;1858166;76;25751;-62
2020/12/13 03:18:09;;;;;;;31.55;15.65;;;;;;;1.18;87.05;99837.86;1858008;77;25904;-60
2020/12/13 03:20:38;;;;;;;31.90;15.43;;;;;;;1.20;87.18;99835.73;1857723;77;25583;-56
2020/12/13 03:23:05;;;;;;;26.62;14.20;;;;;;;1.19;87.12;99844.78;1857566;76;25863;-45
2020/12/13 03:25:32;;;;;;;31.15;13.80;;;;;;;1.18;87.08;99842.66;1857587;77;25630;-60
2020/12/13 03:27:59;;;;;;;32.90;14.50;;;;;;;1.19;87.18;99842.94;1857620;77;26180;-56
2020/12/13 03:30:25;;;;;;;31.50;15.50;;;;;;;1.21;87.19;99847.47;1857545;77;25652;-48
2020/12/13 03:32:52;;;;;;;27.95;13.90;;;;;;;1.22;87.19;99850.94;1857575;77;25636;-52
2020/12/13 03:35:18;;;;;;;29.82;14.00;;;;;;;1.24;87.26;99854.13;1857497;77;25662;-61
2020/12/13 03:37:45;;;;;;;30.48;14.80;;;;;;;1.25;87.23;99856.55;1857641;77;25580;-58
2020/12/13 03:40:12;;;;;;;28.07;14.40;;;;;;;1.28;87.32;99856.58;1857643;77;25764;-56
2020/12/13 03:42:41;;;;;;;31.15;15.23;;;;;;;1.29;87.18;99864.31;1857485;77;25616;-50
2020/12/13 03:45:08;;;;;;;31.20;15.08;;;;;;;1.29;87.17;99862.98;1857517;77;25552;-49
2020/12/13 03:47:35;;;;;;;25.60;12.98;;;;;;;1.30;87.25;99862.44;1857631;77;25584;-54
2020/12/13 03:50:04;;;;;;;28.73;15.03;;;;;;;1.32;87.13;99868.84;1857576;77;25621;-57
2020/12/13 03:52:31;;;;;;;29.00;14.55;;;;;;;1.32;87.17;99868.31;1857796;77;25740;-58
2020/12/13 03:54:58;;;;;;;29.82;14.40;;;;;;;1.35;87.20;99867.80;1857549;77;25616;-55
2020/12/13 03:57:24;;;;;;;32.17;14.15;;;;;;;1.34;87.12;99866.19;1857567;77;25674;-47
2020/12/13 03:59:51;;;;;;;28.92;14.33;;;;;;;1.34;87.12;99866.19;1857673;77;25593;-59
2020/12/13 04:02:18;;;;;;;29.23;14.90;;;;;;;1.34;87.08;99863.52;1857626;77;25662;-61
2020/12/13 04:04:44;;;;;;;29.20;13.55;;;;;;;1.34;87.07;99870.72;1857542;77;26156;-61
2020/12/13 04:07:11;;;;;;;28.42;13.85;;;;;;;1.32;87.12;99863.52;1857579;77;25612;-56
2020/12/13 04:09:39;;;;;;;26.27;12.78;;;;;;;1.35;87.18;99873.13;1857414;77;25552;-61
2020/12/13 04:12:05;;;;;;;23.45;12.53;;;;;;;1.35;87.09;99869.14;1857525;77;25636;-46
2020/12/13 04:14:32;;;;;;;26.35;13.15;;;;;;;1.36;87.08;99873.38;1857607;77;25670;-54
2020/12/13 04:16:59;;;;;;;22.40;11.85;;;;;;;1.38;87.19;99869.13;1857566;76;26206;-61
2020/12/13 04:19:25;;;;;;;24.67;11.70;;;;;;;1.41;87.20;99871.29;1857380;77;25673;-48
2020/12/13 04:21:52;;;;;;;23.12;12.18;;;;;;;1.42;87.16;99871.03;1857581;77;25646;-56
2020/12/13 04:24:18;;;;;;;23.27;12.20;;;;;;;1.42;87.09;99872.36;1857480;77;25675;-58
2020/12/13 04:26:45;;;;;;;26.33;12.90;;;;;;;1.44;87.03;99875.57;1857585;76;25555;-60
2020/12/13 04:29:12;;;;;;;26.93;12.43;;;;;;;1.45;86.98;99875.06;1857595;77;25687;-59
2020/12/13 04:31:39;;;;;;;22.17;11.70;;;;;;;1.45;87.00;99872.39;1857445;76;25550;-61
2020/12/13 04:34:06;;;;;;;21.10;11.70;;;;;;;1.47;87.04;99865.73;1857541;77;25573;-63
2020/12/13 04:36:32;;;;;;;21.77;11.05;;;;;;;1.49;87.07;99869.47;1857563;77;25704;-60
2020/12/13 04:38:59;;;;;;;22.32;12.10;;;;;;;1.48;86.90;99872.67;1857538;77;25655;-58
2020/12/13 04:41:26;;;;;;;22.75;11.38;;;;;;;1.48;86.89;99870.01;1857561;77;26236;-62
2020/12/13 04:43:53;;;;;;;22.30;11.78;;;;;;;1.48;86.84;99874.01;1857429;77;25565;-48
2020/12/13 04:46:25;;;;;;;23.02;10.93;;;;;;;1.50;86.88;99869.75;1857584;77;26237;-61
2020/12/13 04:48:52;;;;;;;22.75;11.60;;;;;;;1.51;86.86;99866.55;1857477;77;25695;-62
2020/12/13 04:51:21;;;;;;;21.07;12.05;;;;;;;1.52;86.89;99876.95;1857514;77;25663;-61
2020/12/13 04:53:50;;;;;;;20.60;10.55;;;;;;;1.55;87.02;99880.95;1857196;77;25932;-59
2020/12/13 04:56:20;;;;;;;23.55;12.18;;;;;;;1.54;86.86;99880.16;1857502;77;26338;-48
2020/12/13 04:58:47;;;;;;;20.77;11.08;;;;;;;1.56;86.87;99878.03;1857616;77;25548;-45
2020/12/13 05:01:14;;;;;;;20.88;11.63;;;;;;;1.56;86.84;99878.57;1857490;77;25705;-58
2020/12/13 05:03:41;;;;;;;23.05;11.53;;;;;;;1.54;86.75;99882.83;1851996;77;25668;-48
2020/12/13 05:06:08;;;;;;;19.40;11.65;;;;;;;1.55;86.77;99879.11;1857588;77;26945;-58
2020/12/13 05:08:34;;;;;;;22.37;11.75;;;;;;;1.56;86.80;99877.23;1857417;77;25936;-60
2020/12/13 05:11:01;;;;;;;20.80;11.63;;;;;;;1.56;86.75;99878.57;1857555;77;25734;-56
2020/12/13 05:13:28;;;;;;;20.82;11.20;;;;;;;1.56;86.76;99879.36;1857482;77;25660;-62
2020/12/13 05:15:54;;;;;;;23.85;12.37;;;;;;;1.56;86.78;99887.36;1857477;77;25584;-58
2020/12/13 05:18:21;;;;;;;23.62;11.00;;;;;;;1.56;86.64;99885.23;1857500;77;26152;-58
2020/12/13 05:20:49;;;;;;;23.65;12.13;;;;;;;1.56;86.72;99885.23;1857373;77;25620;-59
2020/12/13 05:23:18;;;;;;;18.85;10.50;;;;;;;1.54;86.70;99886.83;1857502;77;25735;-60
2020/12/13 05:25:44;;;;;;;20.55;10.93;;;;;;;1.56;86.67;99894.03;1857628;77;25609;-47
2020/12/13 05:28:14;;;;;;;21.85;11.25;;;;;;;1.55;86.79;99892.44;1857479;77;25584;-50
2020/12/13 05:30:46;;;;;;;;;;;;;;;1.57;86.87;99892.98;1860254;77;27040;-52
2020/12/13 05:33:21;;;;;;;21.27;11.35;;;;;;;1.58;86.78;99887.90;1857214;77;25597;-44
2020/12/13 05:35:44;;;;;;;22.75;11.60;;;;;;;1.54;86.68;99892.70;1857379;77;26161;-61
2020/12/13 05:38:12;;;;;;;23.62;12.25;;;;;;;1.56;86.80;99891.36;1857486;77;25584;-57
2020/12/13 05:40:42;;;;;;;24.12;11.75;;;;;;;1.55;86.74;99899.61;1857741;77;25660;-61
2020/12/13 05:46:05;;;;;;;25.97;13.43;;;;;;;1.57;86.61;99909.52;1850419;77;34687;-63
2020/12/13 05:53:22;;;;;;;35.20;15.78;;;;;;;1.41;86.67;99912.59;1792408;78;25814;-60
2020/12/13 05:55:53;;;;;;;33.13;13.78;;;;;;;1.38;86.70;99907.27;1822919;78;25712;-61
2020/12/13 05:58:17;;;;;;;34.30;14.18;;;;;;;1.38;86.82;99905.94;1822528;78;25617;-49
2020/12/13 06:00:45;;;;;;;32.90;14.35;;;;;;;1.38;86.89;99903.78;1822735;78;25640;-62
2020/12/13 06:03:15;;;;;;;31.55;15.70;;;;;;;1.36;86.88;99905.37;1822796;78;25683;-46
2020/12/13 06:05:43;;;;;;;38.50;15.80;;;;;;;1.37;86.91;99906.98;1822840;78;25667;-52
2020/12/13 06:08:14;;;;;;;36.60;16.70;;;;;;;1.38;86.94;99911.77;1822887;78;25639;-62
2020/12/13 06:10:44;;;;;;;39.03;15.55;;;;;;;1.36;86.88;99913.90;1822900;78;25621;-59
2020/12/13 06:13:18;;;;;;;36.85;16.77;;;;;;;1.33;86.83;99914.41;1822978;78;25628;-56
2020/12/13 06:15:48;;;;;;;40.28;17.32;;;;;;;1.35;86.92;99917.64;1822869;78;25961;-44
2020/12/13 06:18:15;;;;;;;41.63;17.32;;;;;;;1.37;87.08;99924.84;1822921;78;25632;-52
2020/12/13 06:20:42;;;;;;;44.30;17.50;;;;;;;1.33;86.82;99928.55;1822837;78;25644;-46
2020/12/13 06:23:11;;;;;;;39.83;17.75;;;;;;;1.29;86.72;99934.93;1822846;78;25620;-48
2020/12/13 06:25:38;;;;;;;38.53;16.77;;;;;;;1.25;86.74;99941.81;1823121;78;25649;-59
2020/12/13 06:28:05;;;;;;;46.18;18.42;;;;;;;1.25;86.74;99941.81;1822798;78;25770;-52
2020/12/13 06:30:32;;;;;;;36.77;16.60;;;;;;;1.23;86.82;99938.60;1822774;78;25605;-46
2020/12/13 06:32:59;;;;;;;45.25;18.25;;;;;;;1.21;86.90;99942.56;1822771;78;25691;-58
2020/12/13 06:35:25;;;;;;;36.40;17.62;;;;;;;1.17;86.81;99942.27;1822688;78;25620;-60
2020/12/13 06:37:54;;;;;;;36.75;15.32;;;;;;;1.17;86.92;99954.80;1822885;78;25629;-61
2020/12/13 06:40:21;;;;;;;36.70;16.32;;;;;;;1.16;87.08;99946.02;1822849;78;26144;-56
2020/12/13 06:42:50;;;;;;;35.40;16.60;;;;;;;1.14;86.93;99948.11;1822766;78;25724;-50
2020/12/13 06:45:19;;;;;;;34.63;15.65;;;;;;;1.13;86.97;99955.05;1822176;78;25566;-61
2020/12/13 06:47:46;;;;;;;41.40;17.12;;;;;;;1.10;86.95;99961.14;1822775;78;25679;-62
2020/12/13 06:50:24;;;;;;;38.70;17.25;;;;;;;1.11;87.07;99965.95;1822770;78;25654;-61
2020/12/13 06:52:53;;;;;;;35.05;16.23;;;;;;;1.13;87.24;99964.38;1822788;78;26729;-56
2020/12/13 06:55:32;;;;;;;38.55;17.48;;;;;;;1.17;87.33;99970.79;1822610;78;25737;-61
2020/12/13 06:58:00;;;;;;;46.42;18.48;;;;;;;1.18;87.28;99971.88;1822343;78;25656;-51
2020/12/13 07:00:27;;;;;;;39.88;17.55;;;;;;;1.21;87.22;99971.37;1822208;78;25700;-54
2020/12/13 07:03:00;;;;;;;37.40;18.02;;;;;;;1.23;87.22;99972.45;1822240;78;25736;-59
2020/12/13 07:05:54;;;;;;;41.13;18.02;;;;;;;1.25;87.23;99976.98;1822108;78;25773;-61
2020/12/13 07:08:22;;;;;;;42.90;17.17;;;;;;;1.26;87.17;99977.25;1821874;78;25679;-52
2020/12/13 07:10:52;;;;;;;41.35;17.10;;;;;;;1.26;87.17;99977.25;1822333;78;26342;-59
2020/12/13 07:13:22;;;;;;;35.17;16.27;;;;;;;1.28;87.23;99977.81;1822291;78;25565;-59
2020/12/13 07:15:58;;;;;;;41.28;17.23;;;;;;;1.29;87.14;99980.23;1822083;78;25523;-62
2020/12/13 07:18:23;;;;;;;39.30;16.15;;;;;;;1.30;87.14;99980.48;1821233;78;26658;-61
2020/12/13 07:20:50;;;;;;;38.90;15.70;;;;;;;1.34;87.20;99983.44;1817012;78;25629;-58
2020/12/13 07:23:16;;;;;;;36.10;17.10;;;;;;;1.33;87.01;99983.19;1789766;80;25641;-61
2020/12/13 07:25:43;;;;;;;38.83;16.97;;;;;;;1.35;87.10;99989.06;1789656;80;25591;-65
2020/12/13 07:28:11;;;;;;;36.73;16.10;;;;;;;1.38;87.16;99987.73;1794324;78;25916;-63
2020/12/13 07:30:38;;;;;;;36.58;16.57;;;;;;;1.38;87.05;99986.40;1789788;80;26165;-62
2020/12/13 07:33:05;;;;;;;41.65;17.77;;;;;;;1.37;86.94;99994.93;1789562;80;25734;-55
2020/12/13 07:35:34;;;;;;;35.50;17.48;;;;;;;1.39;87.04;99993.34;1789752;80;25646;-55
2020/12/13 07:38:02;;;;;;;43.55;17.25;;;;;;;1.39;86.99;99997.34;1789882;80;25694;-56
2020/12/13 07:40:29;;;;;;;41.70;17.27;;;;;;;1.38;86.85;99995.22;1789816;80;25726;-50
2020/12/13 07:43:01;;;;;;;38.98;16.90;;;;;;;1.38;86.84;99995.73;1790861;78;26681;-57
2020/12/13 07:45:29;;;;;;;38.45;15.28;;;;;;;1.35;86.66;100004.25;1790102;78;25653;-56
2020/12/13 07:48:03;;;;;;;31.12;15.55;;;;;;;1.33;86.71;100005.02;1761291;80;25756;-58
2020/12/13 07:50:48;;;;;;;36.03;16.37;;;;;;;1.29;86.68;100004.21;1809121;79;25543;-57
2020/12/13 07:53:25;;;;;;;40.30;16.95;;;;;;;1.31;86.83;100013.26;1809202;79;25716;-59
2020/12/13 07:55:53;;;;;;;34.20;15.70;;;;;;;1.32;86.95;100012.21;1809207;79;26192;-58
2020/12/13 07:58:20;;;;;;;36.77;16.15;;;;;;;1.33;86.90;100018.34;1808897;79;25725;-58
2020/12/13 08:00:47;;;;;;;34.50;15.98;;;;;;;1.31;86.82;100019.92;1809230;79;26331;-54
2020/12/13 08:03:14;;;;;;;36.40;16.40;;;;;;;1.29;86.83;100021.53;1809099;79;25618;-54
2020/12/13 08:05:42;;;;;;;35.48;14.80;;;;;;;1.31;86.90;100027.91;1809083;79;25613;-58
2020/12/13 08:08:09;;;;;;;31.82;14.68;;;;;;;1.29;86.75;100034.86;1801965;79;25728;-52
2020/12/13 08:10:36;;;;;;;32.93;14.98;;;;;;;1.28;86.81;100040.44;1777113;80;25547;-55
2020/12/13 08:13:07;;;;;;;34.78;14.85;;;;;;;1.28;86.89;100035.91;1776918;80;26441;-56
2020/12/13 08:15:32;;;;;;;32.63;15.18;;;;;;;1.33;87.09;100038.33;1777200;80;25551;-55
2020/12/13 08:18:12;;;;;;;32.42;15.23;;;;;;;1.33;86.82;100038.33;1777248;80;25645;-58
2020/12/13 08:20:43;;;;;;;25.90;13.80;;;;;;;1.36;86.95;100045.81;1777174;80;26465;-58
2020/12/13 08:23:13;;;;;;;27.02;13.75;;;;;;;1.36;86.82;100048.48;1777201;80;25900;-58
2020/12/13 08:25:41;;;;;;;24.67;12.68;;;;;;;1.33;86.38;100049.81;1777271;80;26201;-57
2020/12/13 08:28:08;;;;;;;20.77;10.40;;;;;;;1.32;86.39;100051.39;1776902;80;25662;-58
2020/12/13 08:30:35;;;;;;;22.25;11.38;;;;;;;1.30;85.98;100050.31;1777189;80;25705;-53
2020/12/13 08:33:05;;;;;;;23.00;12.00;;;;;;;1.27;85.99;100057.47;1777110;80;25771;-56
2020/12/13 08:35:32;;;;;;;20.75;11.30;;;;;;;1.23;85.83;100059.84;1776377;80;25772;-53
2020/12/13 08:38:01;;;;;;;21.33;11.28;;;;;;;1.18;85.64;100064.33;1777218;80;25656;-55
2020/12/13 08:40:43;;;;;;;26.15;12.55;;;;;;;1.14;85.60;100065.33;1777311;80;25634;-57
2020/12/13 08:43:17;;;;;;;22.22;12.33;;;;;;;1.10;85.71;100066.36;1777025;80;25702;-57
2020/12/13 08:45:42;;;;;;;24.35;12.60;;;;;;;1.10;85.85;100074.89;1783102;78;25720;-54
2020/12/13 08:48:09;;;;;;;21.00;11.88;;;;;;;1.06;85.80;100070.59;1797163;78;25666;-58
2020/12/13 08:50:42;;;;;;;24.95;12.80;;;;;;;1.05;85.75;100073.52;1793608;78;25794;-57
2020/12/13 08:53:25;;;;;;;25.92;12.10;;;;;;;1.02;85.70;100068.67;1789341;80;26403;-58
2020/12/13 08:56:14;;;;;;;20.62;11.75;;;;;;;1.01;85.76;100072.41;1789062;80;25630;-57
2020/12/13 08:58:57;;;;;;;23.77;12.73;;;;;;;0.99;85.69;100071.84;1789063;80;25703;-57
2020/12/13 09:01:24;;;;;;;28.52;12.78;;;;;;;0.98;85.77;100071.58;1788818;79;26332;-57
2020/12/13 09:03:50;;;;;;;25.40;14.20;;;;;;;0.96;85.72;100076.36;1789394;80;25743;-58
2020/12/13 09:06:30;;;;;;;28.60;13.40;;;;;;;0.95;85.74;100076.86;1789029;80;25614;-55
2020/12/13 09:09:14;;;;;;;27.02;14.00;;;;;;;0.95;85.89;100072.87;1789182;79;25609;-57
2020/12/13 09:11:42;;;;;;;29.05;14.50;;;;;;;0.97;85.95;100072.11;1789058;80;25966;-58
2020/12/13 09:14:09;;;;;;;25.12;14.05;;;;;;;0.95;85.99;100078.20;1788785;80;25711;-57
2020/12/13 09:16:36;;;;;;;31.73;14.90;;;;;;;0.97;85.99;100069.95;1789022;79;25684;-58
2020/12/13 09:19:11;;;;;;;29.77;16.25;;;;;;;0.91;85.99;100070.44;1789079;79;25672;-60
2020/12/13 09:21:48;;;;;;;28.05;16.00;;;;;;;0.98;86.11;100080.36;1789077;79;26382;-57
2020/12/13 09:24:17;;;;;;;28.45;15.15;;;;;;;0.97;85.96;100077.44;1788891;79;25728;-56
2020/12/13 09:27:00;;;;;;;31.57;15.88;;;;;;;1.00;86.15;100074.79;1788963;79;25657;-57
2020/12/13 09:29:28;;;;;;;30.88;15.18;;;;;;;1.04;86.20;100076.71;1769318;80;26194;-56
2020/12/13 09:31:55;;;;;;;28.98;15.43;;;;;;;1.07;86.14;100078.05;1788912;79;25606;-57
2020/12/13 09:34:23;;;;;;;28.12;14.40;;;;;;;1.09;86.18;100082.59;1789081;80;25685;-58
2020/12/13 09:36:51;;;;;;;27.85;15.30;;;;;;;1.13;86.04;100077.59;1788985;80;26686;-58
2020/12/13 09:39:18;;;;;;;24.30;13.85;;;;;;;1.17;86.17;100078.69;1788941;80;25623;-57
2020/12/13 09:41:45;;;;;;;27.17;14.73;;;;;;;1.19;85.93;100081.90;1788915;80;25657;-57
2020/12/13 09:44:12;;;;;;;24.52;13.43;;;;;;;1.19;85.77;100073.91;1789092;79;25621;-58
2020/12/13 09:46:40;;;;;;;25.10;13.40;;;;;;;1.19;85.44;100072.58;1789024;79;26050;-58
2020/12/13 09:49:07;;;;;;;25.25;13.60;;;;;;;1.17;85.29;100069.37;1789088;80;26146;-58
2020/12/13 09:51:33;;;;;;;23.60;12.60;;;;;;;1.15;85.23;100075.48;1788808;79;25700;-57
2020/12/13 09:54:00;;;;;;;22.48;13.18;;;;;;;1.14;85.25;100081.31;1789050;80;25634;-57
2020/12/13 09:56:27;;;;;;;24.72;13.98;;;;;;;1.13;85.17;100076.27;1788875;80;25697;-58
2020/12/13 09:58:54;;;;;;;27.07;14.15;;;;;;;1.15;85.38;100080.81;1788931;79;25618;-58
2020/12/13 10:01:20;;;;;;;25.75;13.85;;;;;;;1.19;85.54;100085.90;1789036;80;26358;-58
2020/12/13 10:03:50;;;;;;;23.30;13.40;;;;;;;1.17;85.29;100083.48;1788891;80;26316;-59
2020/12/13 10:09:07;;;;;;;28.42;14.58;;;;;;;1.21;84.96;100085.11;1847248;76;33850;-54
2020/12/13 10:11:40;;;;;;;30.12;16.17;;;;;;;1.12;85.01;100075.44;1817083;78;25653;-57
2020/12/13 10:14:11;;;;;;;30.30;15.65;;;;;;;1.14;85.23;100076.52;1817338;78;26322;-57
2020/12/13 10:16:43;;;;;;;29.05;14.87;;;;;;;1.16;85.25;100074.41;1817301;78;25717;-58
2020/12/13 10:19:11;;;;;;;29.80;14.38;;;;;;;1.16;85.11;100075.23;1817333;78;25676;-57
2020/12/13 10:21:38;;;;;;;28.77;14.95;;;;;;;1.14;84.99;100073.32;1817196;78;25757;-57
2020/12/13 10:24:06;;;;;;;28.20;14.85;;;;;;;1.15;85.01;100074.15;1817347;78;26230;-57
2020/12/13 10:29:12;;;;;;;26.97;14.23;;;;;;;1.23;84.89;100070.50;1815822;78;33471;-53
2020/12/13 10:31:41;;;;;;;28.32;14.35;;;;;;;1.16;84.95;100070.41;1769613;80;25719;-55
2020/12/13 10:34:11;;;;;;;26.17;14.07;;;;;;;1.17;85.06;100078.69;1728957;81;25723;-57
2020/12/13 10:36:39;;;;;;;24.10;12.80;;;;;;;1.18;84.95;100074.45;1746248;81;25797;-56
2020/12/13 10:39:08;;;;;;;23.18;13.62;;;;;;;1.19;84.86;100072.58;1740717;81;26005;-57
2020/12/13 10:41:36;;;;;;;26.15;13.90;;;;;;;1.18;84.79;100069.12;1736484;82;26090;-57
2020/12/13 10:44:04;;;;;;;27.98;13.53;;;;;;;1.16;84.74;100065.91;1736614;82;26412;-58
2020/12/13 10:46:31;;;;;;;27.48;14.33;;;;;;;1.18;84.92;100059.00;1736509;82;27337;-58
2020/12/13 10:48:58;;;;;;;26.97;13.48;;;;;;;1.19;84.83;100065.41;1736512;81;25726;-60
2020/12/13 10:51:25;;;;;;;26.07;13.58;;;;;;;1.21;84.87;100059.30;1744789;81;25777;-57
2020/12/13 10:53:52;;;;;;;28.10;13.65;;;;;;;1.21;84.71;100062.47;1738630;81;25715;-57
2020/12/13 10:56:19;;;;;;;26.65;13.32;;;;;;;1.18;84.59;100068.32;1746364;81;25800;-58
2020/12/13 10:58:45;;;;;;;28.47;14.03;;;;;;;1.17;84.60;100058.70;1736090;82;25737;-60
2020/12/13 11:01:13;;;;;;;23.35;13.20;;;;;;;1.16;84.59;100062.41;1735870;82;25728;-59
2020/12/13 11:03:40;;;;;;;28.20;14.53;;;;;;;1.16;84.51;100058.42;1736333;81;25865;-58
2020/12/13 11:06:10;;;;;;;25.60;12.98;;;;;;;1.17;84.65;100061.37;1744431;81;25701;-58
2020/12/13 11:08:38;;;;;;;29.15;14.10;;;;;;;1.15;84.47;100064.28;1744830;81;25738;-58
2020/12/13 11:11:06;;;;;;;27.48;13.18;;;;;;;1.15;84.45;100060.29;1740286;81;26193;-57
2020/12/13 11:13:34;;;;;;;26.75;14.55;;;;;;;1.15;84.61;100060.83;1740732;81;25974;-56
2020/12/13 11:16:01;;;;;;;27.02;14.70;;;;;;;1.17;84.62;100061.37;1744868;81;25515;-59
2020/12/13 11:18:30;;;;;;;29.20;14.75;;;;;;;1.18;84.61;100057.66;1743581;81;25713;-49
2020/12/13 11:20:58;;;;;;;26.73;14.45;;;;;;;1.19;84.62;100060.59;1741128;81;25738;-56
2020/12/13 11:23:25;;;;;;;30.62;14.23;;;;;;;1.22;84.75;100063.55;1740673;81;26044;-57
2020/12/13 11:25:53;;;;;;;27.35;14.30;;;;;;;1.21;84.46;100057.96;1735961;82;25709;-58
2020/12/13 11:28:20;;;;;;;24.98;14.00;;;;;;;1.22;84.49;100063.55;1720791;81;42696;-56
2020/12/13 11:30:47;;;;;;;29.72;15.38;;;;;;;1.23;84.53;100053.72;1727551;82;25761;-58
2020/12/13 11:33:13;;;;;;;29.77;15.40;;;;;;;1.24;84.47;100057.46;1727077;82;25948;-58
2020/12/13 11:35:40;;;;;;;28.83;14.40;;;;;;;1.25;84.47;100059.05;1725132;82;27492;-53
2020/12/13 11:38:07;;;;;;;33.25;15.60;;;;;;;1.28;84.52;100065.75;1727113;82;25925;-52
2020/12/13 11:40:34;;;;;;;26.02;13.60;;;;;;;1.23;84.45;100050.52;1723513;82;25958;-56
2020/12/13 11:43:01;;;;;;;31.42;15.50;;;;;;;1.27;84.27;100070.26;1728333;82;25795;-57
2020/12/13 11:45:27;;;;;;;29.92;16.32;;;;;;;1.31;84.40;100077.22;1720426;81;25776;-56
2020/12/13 11:47:54;;;;;;;32.73;15.85;;;;;;;1.35;84.57;100070.34;1721678;82;26017;-57